Weather observations for the past three days for
Murray Kyle Oakley Field, KY
Metric (Imperial)
Date Time (cdt) Wind (kph) Vis. (km) Weather Sky Cond. Temperature (ºC) Relative Humidity Wind Chill (°C) Heat Index (°C) Pressure Precipitation (cm)
Air Dwpt 6 hour altimeter (cm) sea level (mb) 1 hr 3 hr 6 hr
Max. Min.
01 10:15 SW 9 16.09 Fair CLR 32 23 59% 37 76.5 0.0
01 09:55 SW 13 16.09 Fair CLR 32 23 59% 37 76.5 0.0
01 09:35 SW 11 16.09 Fair CLR 31 23 62% 35 76.5 0.0
01 09:10 S 11 16.09 Fair CLR 30 23 66% 34 76.53 0.0
01 08:55 SW 13 16.09 Fair CLR 30 23 66% 34 76.53 0.0
01 08:35 SW 13 16.09 Fair CLR 29 23 70% 33 76.53 0.0
01 08:15 SW 15 16.09 Fair CLR 29 23 70% 33 76.53 0.0
01 07:55 SW 13 16.09 Fair CLR 28 22 70% 31 76.5 0.0
01 07:30 S 9 16.09 Fair CLR 26 22 79% 28 76.5 0.0
01 07:15 Vrbl 9 16.09 Fair CLR 26 22 79% 28 76.48 0.0
01 06:55 Vrbl 11 16.09 Fair CLR 25 22 83% 26 76.48 0.0
01 06:35 S 9 G 19 16.09 Fair CLR 25 22 83% 26 76.45 0.0
01 06:15 S 7 16.09 Fair CLR 24 22 89% 24 76.43 0.0
01 05:50 S 7 16.09 Fair CLR 25 22 83% 26 76.43 0.0
01 05:35 S 6 16.09 Fair CLR 25 22 83% 26 76.43 0.0
01 05:15 S 7 16.09 Fair CLR 25 22 83% 26 76.4 0.0
01 04:55 S 9 16.09 Fair CLR 25 22 83% 26 76.4 0.0
01 04:35 S 7 16.09 Fair CLR 25 22 83% 26 76.4 0.0
01 04:10 Calm 16.09 Fair CLR 25 22 83% 26 76.38 0.0
01 03:55 Vrbl 6 16.09 Fair CLR 25 23 89% 26 76.38 0.0
01 03:35 S 7 16.09 Fair CLR 25 23 89% 26 76.38 0.0
01 03:15 S 7 16.09 Fair CLR 26 23 84% 28 76.38 0.0
01 02:55 S 7 16.09 Fair CLR 26 23 84% 28 76.38 0.0
01 02:30 S 9 16.09 Fair CLR 26 23 84% 28 76.35 0.0
01 02:15 S 9 16.09 Fair CLR 25 23 89% 26 76.38 0.0
01 01:55 S 9 16.09 Fair CLR 26 23 84% 28 76.38 0.0
01 01:35 S 9 16.09 Fair CLR 26 23 84% 28 76.38 0.0
01 01:15 SE 7 16.09 Fair CLR 26 23 84% 28 76.38 0.0
01 00:50 S 9 16.09 Fair CLR 26 23 84% 28 76.38 0.0
01 00:35 S 11 16.09 Fair CLR 26 23 84% 28 76.38 0.0
01 00:15 S 11 16.09 Fair CLR 25 23 89% 26 76.38 0.0
31 23:55 S 9 16.09 Fair CLR 26 23 84% 28 76.38 0.0
31 23:35 S 9 16.09 Fair CLR 26 23 84% 28 76.38 0.0
31 23:10 S 11 16.09 Fair CLR 26 24 89% 28 76.4 0.0
31 22:55 S 9 16.09 Fair CLR 26 24 89% 28 76.38 0.0
31 22:35 SE 7 16.09 Fair CLR 25 24 94% 26 76.4 0.0
31 22:15 Calm 16.09 Fair CLR 25 24 94% 26 76.38 0.0
31 21:55 Calm 16.09 Fair CLR 26 24 89% 28 76.38 0.0
31 21:30 Calm 16.09 Fair CLR 26 24 89% 28 76.38 0.0
31 21:15 Calm 16.09 Fair CLR 26 24 89% 28 76.35 0.0
31 20:55 Calm 16.09 Fair CLR 27 24 84% 30 76.35 0.0
31 20:35 Calm 16.09 Fair CLR 27 23 79% 30 76.33 0.0
31 20:15 Calm 16.09 Fair CLR 27 23 79% 30 76.3 0.0
31 19:50 Calm 16.09 Fair CLR 28 23 74% 31 76.3 0.0
31 19:35 SE 7 16.09 Fair CLR 28 22 70% 31 76.3 0.0
31 19:15 SE 7 16.09 Fair CLR 29 23 70% 33 76.3 0.0
31 18:35 Vrbl 7 16.09 Fair CLR 32 22 55% 36 76.3 0.0
31 18:10 S 7 16.09 Fair CLR 33 22 52% 37 76.33 0.0
31 17:55 S 6 16.09 Fair CLR 33 21 49% 36 76.33 0.0
31 17:35 S 9 16.09 Fair CLR 34 21 47% 37 76.35 0.0
31 17:15 S 7 16.09 Fair CLR 34 21 47% 37 76.35 0.0
31 16:55 S 9 16.09 Fair CLR 34 21 47% 37 76.38 0.0
31 16:30 SE 9 16.09 Fair CLR 34 21 47% 37 76.38 0.0
31 16:15 Vrbl 11 16.09 Fair CLR 34 20 44% 36 76.38 0.0
31 15:55 SE 11 16.09 Fair CLR 34 21 47% 37 76.38 0.0
31 15:35 S 11 16.09 Fair CLR 34 22 50% 38 76.38 0.0
31 15:15 SE 7 16.09 Fair CLR 34 22 50% 38 76.4 0.0
31 14:50 SW 13 16.09 A Few Clouds FEW050 35 22 47% 39 76.43 0.0
31 14:35 SW 7 G 20 16.09 Fair CLR 34 21 47% 37 76.43 0.0
31 14:15 SW 9 16.09 Fair CLR 34 22 50% 38 76.45 0.0
31 13:55 SE 6 16.09 A Few Clouds FEW050 34 22 50% 38 76.45 0.0
31 13:35 S 6 16.09 A Few Clouds FEW050 34 21 47% 37 76.48 0.0
31 13:10 S 9 16.09 Fair CLR 34 21 47% 37 76.5 0.0
31 12:55 SE 13 16.09 Fair CLR 33 22 52% 37 76.5 0.0
31 12:35 Vrbl 9 16.09 Fair CLR 33 22 52% 37 76.53 0.0
31 12:15 SW 17 16.09 Fair CLR 33 23 56% 38 76.53 0.0
31 11:55 S 13 16.09 Fair CLR 33 23 56% 38 76.56 0.0
31 11:30 SW 17 16.09 Fair CLR 32 22 55% 36 76.58 0.0
31 11:15 SW 15 16.09 A Few Clouds FEW038 32 23 59% 37 76.56 0.0
31 10:55 Vrbl 7 G 19 16.09 Fair CLR 32 23 59% 37 76.56 0.0
31 10:35 SW 13 16.09 Fair CLR 31 23 62% 35 76.56 0.0
31 10:15 SW 19 16.09 Fair CLR 31 23 62% 35 76.56 0.0
31 09:50 SW 11 16.09 Fair CLR 30 23 66% 34 76.53 0.0
31 09:35 SW 11 16.09 Fair CLR 30 23 66% 34 76.53 0.0
31 09:15 Vrbl 9 16.09 Fair CLR 30 23 66% 34 76.53 0.0
31 08:55 Vrbl 7 G 19 16.09 Fair CLR 28 23 74% 31 76.5 0.0
31 08:35 Vrbl 7 16.09 Fair CLR 28 23 74% 31 76.5 0.0
31 08:10 Vrbl 9 16.09 Fair CLR 26 23 84% 28 76.5 0.0
31 07:55 S 7 16.09 Fair CLR 25 23 89% 26 76.5 0.0
31 07:35 S 11 16.09 Fair CLR 25 23 89% 26 76.48 0.0
31 07:15 SE 11 16.09 Fair CLR 24 22 89% 24 76.45 0.0
31 06:55 SE 11 16.09 Fair CLR 24 22 89% 24 76.45 0.0
31 06:30 SE 11 16.09 Fair CLR 24 22 89% 24 76.43 0.0
31 06:15 SE 11 16.09 Fair CLR 23 22 94% 76.43 0.0
31 05:55 S 7 16.09 Fair CLR 24 22 89% 24 76.43 0.0
31 05:35 SE 7 16.09 Fair CLR 24 22 89% 24 76.4 0.0
31 05:15 Calm 16.09 Fair CLR 24 22 89% 24 76.4 0.0
31 04:50 Vrbl 6 16.09 Fair CLR 24 22 89% 24 76.4 0.0
31 04:35 Vrbl 7 16.09 Fair CLR 24 22 89% 24 76.38 0.0
31 04:15 S 9 16.09 Fair CLR 25 22 83% 26 76.38 0.0
31 03:55 S 9 16.09 Fair CLR 25 22 83% 26 76.35 0.0
31 03:35 S 9 16.09 Fair CLR 25 22 83% 26 76.35 0.0
31 03:10 SE 9 16.09 Fair CLR 25 22 83% 26 76.35 0.0
31 02:55 SE 9 16.09 Fair CLR 25 22 83% 26 76.35 0.0
31 02:35 SE 9 16.09 Fair CLR 25 22 83% 26 76.35 0.0
31 02:15 SE 9 16.09 Fair CLR 26 23 84% 28 76.35 0.0
31 01:55 SE 9 16.09 Fair CLR 26 23 84% 28 76.35 0.0
31 01:30 S 6 16.09 Fair CLR 26 23 84% 28 76.38 0.0
31 01:15 Vrbl 7 16.09 Fair CLR 26 23 84% 28 76.35 0.0
31 00:55 S 7 16.09 Fair CLR 26 23 84% 28 76.38 0.0
31 00:35 Vrbl 7 16.09 Fair CLR 26 23 84% 28 76.38 0.0
31 00:15 S 7 16.09 Fair CLR 26 23 84% 28 76.38 0.0
30 23:50 S 7 16.09 Fair CLR 26 24 89% 28 76.38 0.0
30 23:35 S 7 16.09 Fair CLR 26 24 89% 28 76.38 0.0
30 23:15 SE 7 16.09 Fair CLR 27 24 84% 30 76.38 0.0
30 22:55 Vrbl 7 16.09 Fair CLR 27 24 84% 30 76.38 0.0
30 22:35 SE 9 16.09 Fair CLR 27 24 84% 30 76.35 0.0
30 22:10 SE 6 16.09 Fair CLR 27 24 84% 30 76.35 0.0
30 21:55 Calm 16.09 Fair CLR 27 24 84% 30 76.35 0.0
30 21:35 Calm 16.09 Fair CLR 28 24 79% 32 76.35 0.0
30 21:15 Calm 16.09 Fair CLR 27 24 84% 30 76.35 0.0
30 20:55 Calm 16.09 Fair CLR 27 24 84% 30 76.33 0.0
30 20:30 Calm 16.09 Fair CLR 27 24 84% 30 76.33 0.0
30 20:15 Calm 16.09 Fair CLR 27 24 84% 30 76.3 0.0
30 19:55 Calm 16.09 Fair CLR 28 24 79% 32 76.3 0.0
30 19:35 Calm 16.09 Fair CLR 29 23 70% 33 76.3 0.0
30 19:15 Calm 16.09 Fair CLR 29 23 70% 33 76.3 0.0
30 18:50 Calm 16.09 Fair CLR 31 22 59% 35 76.3 0.0
30 18:35 SE 9 16.09 Fair CLR 32 22 55% 36 76.3 0.0
30 18:15 S 7 16.09 Fair CLR 32 22 55% 36 76.3 0.0
30 17:55 SE 7 16.09 Fair CLR 33 21 49% 36 76.3 0.0
30 17:35 S 11 16.09 A Few Clouds FEW055 33 21 49% 36 76.3 0.0
30 17:10 S 11 16.09 Fair CLR 33 21 49% 36 76.3 0.0
30 16:55 S 13 16.09 Fair CLR 34 21 47% 37 76.3 0.0
30 16:35 Vrbl 7 16.09 Fair CLR 33 21 49% 36 76.3 0.0
30 16:15 S 9 16.09 Fair CLR 34 21 47% 37 76.33 0.0
30 15:55 SW 15 16.09 Fair CLR 35 21 44% 38 76.33 0.0
30 15:30 S 11 16.09 A Few Clouds FEW055 FEW065 34 21 47% 37 76.35 0.0
30 15:15 Vrbl 9 16.09 Partly Cloudy FEW055 SCT070 34 22 50% 38 76.35 0.0
30 14:55 S 13 16.09 Partly Cloudy SCT055 SCT070 34 21 47% 37 76.38 0.0
30 14:35 Vrbl 11 16.09 Partly Cloudy SCT055 34 21 47% 37 76.4 0.0
30 14:15 S 13 G 28 16.09 Fair CLR 35 21 44% 38 76.4 0.0
30 13:50 S 15 16.09 Partly Cloudy SCT050 34 21 47% 37 76.43 0.0
30 13:35 Vrbl 13 G 22 16.09 Partly Cloudy SCT050 33 21 49% 36 76.43 0.0
30 13:15 Vrbl 11 16.09 A Few Clouds FEW050 33 21 49% 36 76.45 0.0
30 12:55 Vrbl 11 16.09 A Few Clouds FEW055 33 21 49% 36 76.45 0.0
30 12:35 S 17 16.09 A Few Clouds FEW050 33 21 49% 36 76.48 0.0
30 12:10 Vrbl 7 G 19 16.09 Fair CLR 33 21 49% 36 76.48 0.0
30 11:55 SW 17 16.09 Fair CLR 33 21 49% 36 76.48 0.0
30 11:35 S 13 16.09 Fair CLR 33 21 49% 36 76.5 0.0
30 11:15 Vrbl 9 G 20 16.09 Fair CLR 32 22 55% 36 76.48 0.0
30 10:55 S 13 16.09 Fair CLR 31 22 59% 35 76.48 0.0
30 10:30 Vrbl 11 14.48 Fair CLR 30 23 66% 34 76.48 0.0
30 10:15 Vrbl 9 16.09 Fair CLR 30 23 66% 34 76.48 0.0
30 09:55 SW 11 16.09 Fair CLR 30 23 66% 34 76.48 0.0
30 09:35 S 11 16.09 Fair CLR 29 23 70% 33 76.48 0.0
30 09:15 S 9 16.09 Fair CLR 28 23 74% 31 76.48 0.0
30 08:50 S 9 16.09 Fair CLR 26 22 79% 28 76.48 0.0
30 08:35 Vrbl 9 16.09 Fair CLR 26 22 79% 28 76.48 0.0
30 08:15 S 13 16.09 Fair CLR 25 22 83% 26 76.48 0.0
30 07:55 S 9 16.09 Fair CLR 24 22 89% 24 76.48 0.0
30 07:35 SE 7 16.09 Fair CLR 23 21 89% 76.48 0.0
30 07:10 SE 11 16.09 Fair CLR 22 21 94% 76.48 0.0
30 06:55 SE 11 16.09 Fair CLR 22 21 94% 76.45 0.0
30 06:35 SE 9 16.09 Fair CLR 21 20 94% 76.43 0.0
30 06:15 SE 11 16.09 Fair CLR 21 20 94% 76.43 0.0
30 05:55 SE 9 16.09 Fair CLR 20 20 100% 76.43 0.0
30 05:30 SE 6 16.09 Fair CLR 20 20 100% 76.4 0.0
30 05:15 SE 7 16.09 Fair CLR 20 20 100% 76.4 0.0
30 04:55 Calm 16.09 Fair CLR 21 20 94% 76.4 0.0
30 04:35 Calm 16.09 Fair CLR 21 20 94% 76.4 0.0
30 04:15 SE 6 16.09 Fair CLR 20 20 100% 76.4 0.0
30 03:50 Calm 16.09 Fair CLR 20 19 94% 76.4 0.0
30 03:35 Calm 16.09 Fair CLR 20 19 94% 76.4 0.0
30 03:15 Calm 16.09 Fair CLR 20 19 94% 76.43 0.0
30 02:55 Calm 16.09 Fair CLR 20 19 94% 76.4 0.0
30 02:35 Calm 16.09 Fair CLR 21 19 88% 76.4 0.0
30 02:10 Calm 16.09 Fair CLR 21 19 88% 76.43 0.0
30 01:55 Calm 16.09 Fair CLR 21 19 88% 76.43 0.0
30 01:35 Calm 16.09 Fair CLR 21 19 88% 76.43 0.0
30 01:15 Calm 16.09 Fair CLR 22 19 83% 76.43 0.0
30 00:55 Calm 9.66 Fair with Haze CLR 22 19 83% 76.43 0.0
30 00:30 SE 6 16.09 Fair CLR 21 20 94% 76.43 0.0
30 00:15 SE 7 16.09 Fair CLR 21 20 94% 76.43 0.0
29 23:55 Calm 16.09 Fair CLR 21 19 88% 76.43 0.0
29 23:35 Calm 16.09 Fair CLR 21 20 94% 76.43 0.0
29 23:15 Calm 16.09 Fair CLR 22 19 83% 76.43 0.0
29 22:50 Calm 16.09 Fair CLR 22 19 83% 76.4 0.0
29 22:35 Calm 16.09 Fair CLR 22 19 83% 76.4 0.0
29 22:15 Calm 16.09 Fair CLR 23 19 78% 76.4 0.0
29 21:55 Calm 16.09 Fair CLR 23 19 78% 76.4 0.0
29 21:35 Calm 16.09 Fair CLR 22 19 83% 76.4 0.0
29 21:10 Calm 16.09 Fair CLR 23 19 78% 76.4 0.0
29 20:55 Calm 16.09 Fair CLR 23 19 78% 76.4 0.0
29 20:35 Calm 16.09 Fair CLR 23 19 78% 76.4 0.0
29 20:15 Calm 16.09 Fair CLR 24 19 74% 25 76.38 0.0
29 19:55 Calm 16.09 Fair CLR 24 19 74% 25 76.35 0.0
29 19:30 Calm 16.09 Fair CLR 25 19 69% 26 76.35 0.0
29 19:15 Calm 16.09 Fair CLR 25 19 69% 26 76.35 0.0
29 18:55 Calm 16.09 Fair CLR 26 19 65% 27 76.35 0.0
29 18:35 Calm 16.09 Fair CLR 28 19 58% 29 76.38 0.0
29 18:15 NE 9 16.09 Fair CLR 30 18 49% 31 76.38 0.0
29 17:50 NE 7 16.09 Fair CLR 31 16 40% 31 76.38 0.0
29 17:35 NE 9 16.09 Fair CLR 31 16 40% 31 76.38 0.0
29 17:15 E 11 16.09 Fair CLR 31 16 40% 31 76.4 0.0
29 16:55 NE 11 16.09 Fair CLR 31 16 40% 31 76.4 0.0
29 16:35 NE 13 16.09 Fair CLR 32 17 41% 32 76.4 0.0
29 16:10 Vrbl 7 16.09 Fair CLR 31 16 40% 31 76.4 0.0
29 15:55 E 11 16.09 Fair CLR 31 17 43% 31 76.4 0.0
29 15:35 E 9 16.09 Fair CLR 31 16 40% 31 76.43 0.0
29 15:15 NE 13 16.09 A Few Clouds FEW070 32 17 41% 32 76.45 0.0
29 14:55 NE 13 16.09 Fair CLR 31 16 40% 31 76.45 0.0
29 14:30 Vrbl 9 16.09 Fair CLR 32 17 41% 32 76.45 0.0
29 14:15 NE 15 16.09 Fair CLR 32 17 41% 32 76.48 0.0
29 13:55 NE 13 16.09 Fair CLR 32 17 41% 32 76.5 0.0
29 13:35 E 9 16.09 A Few Clouds FEW065 32 17 41% 32 76.5 0.0
29 13:15 E 13 16.09 Fair CLR 32 17 41% 32 76.53 0.0
29 12:50 NE 11 16.09 Fair CLR 31 17 43% 31 76.53 0.0
29 12:35 E 15 16.09 Fair CLR 31 17 43% 31 76.53 0.0
29 12:15 Vrbl 7 16.09 Fair CLR 31 16 40% 31 76.56 0.0
29 11:55 Vrbl 7 16.09 Fair CLR 31 16 40% 31 76.56 0.0
29 11:35 E 11 16.09 Fair CLR 31 16 40% 31 76.58 0.0
29 11:10 Vrbl 6 16.09 Fair CLR 30 19 52% 31 76.58 0.0
29 10:55 NE 7 16.09 Fair CLR 29 20 58% 31 76.61 0.0
Date Time (cdt) Wind (kph) Vis. (km) Weather Sky Cond. Air Dwpt Max. Min. Relative Humidity Wind Chill (°C) Heat Index (°C) altimeter (cm) sea level (mb) 1 hr 3 hr 6 hr
6 hour
Temperature (ºC) Pressure Precipitation (cm)